createdAt,value
2022-08-18T00:00:26.470Z,225.00
2022-08-18T00:01:26.504Z,225.00
2022-08-18T00:02:30.095Z,225.00
2022-08-18T00:03:52.991Z,225.00
2022-08-18T00:04:36.600Z,225.00
2022-08-18T00:05:26.484Z,225.00
2022-08-18T00:06:28.677Z,225.00
2022-08-18T00:07:26.471Z,225.00
2022-08-18T00:08:26.498Z,225.00
2022-08-18T00:09:30.254Z,225.00
2022-08-18T00:10:26.509Z,225.00
2022-08-18T00:11:26.550Z,247.14
2022-08-18T00:12:26.490Z,0.00
2022-08-18T00:13:26.519Z,324.58
2022-08-18T00:14:26.505Z,270.00
2022-08-18T00:15:26.503Z,270.00
2022-08-18T00:16:26.497Z,270.00
2022-08-18T00:17:26.493Z,270.00
2022-08-18T00:18:26.492Z,256.17
2022-08-18T00:19:45.546Z,225.00
2022-08-18T00:20:26.527Z,225.00
2022-08-18T00:21:26.483Z,225.00
2022-08-18T00:22:26.504Z,225.00
2022-08-18T00:23:26.516Z,225.00
2022-08-18T00:24:26.557Z,225.00
2022-08-18T00:25:26.527Z,225.00
2022-08-18T00:26:26.522Z,225.00
2022-08-18T00:27:28.582Z,225.00
2022-08-18T00:28:26.501Z,225.00
2022-08-18T00:29:26.542Z,225.00
2022-08-18T00:30:26.538Z,225.00
2022-08-18T00:31:26.500Z,225.00
2022-08-18T00:32:26.547Z,225.00
2022-08-18T00:33:26.525Z,225.00
2022-08-18T00:34:26.537Z,225.00
2022-08-18T00:35:26.530Z,225.00
2022-08-18T00:36:26.634Z,225.00
2022-08-18T00:37:26.639Z,225.00
2022-08-18T00:38:26.664Z,225.00
2022-08-18T00:39:26.776Z,225.00
2022-08-18T00:40:26.697Z,225.00
2022-08-18T00:41:26.682Z,266.67
2022-08-18T00:42:27.309Z,230.12
2022-08-18T00:43:26.681Z,347.46
2022-08-18T00:44:26.677Z,315.00
2022-08-18T00:45:26.675Z,315.00
2022-08-18T00:46:26.685Z,315.00
2022-08-18T00:47:36.437Z,315.00
2022-08-18T00:48:26.681Z,315.00
2022-08-18T00:49:26.702Z,315.00
2022-08-18T00:50:26.676Z,315.00
2022-08-18T00:51:26.701Z,315.00
2022-08-18T00:52:26.688Z,315.00
2022-08-18T00:53:26.676Z,315.00
2022-08-18T00:54:26.742Z,315.00
2022-08-18T00:55:26.682Z,315.00
2022-08-18T00:56:26.690Z,315.00
2022-08-18T00:57:26.692Z,315.00
2022-08-18T00:58:26.681Z,315.00
2022-08-18T00:59:26.688Z,315.00
2022-08-18T01:00:26.709Z,315.00
2022-08-18T01:01:26.724Z,315.00
2022-08-18T01:02:26.697Z,315.00
2022-08-18T01:03:26.728Z,315.00
2022-08-18T01:04:26.705Z,315.00
2022-08-18T01:05:26.761Z,315.00
2022-08-18T01:06:26.703Z,315.00
2022-08-18T01:07:26.749Z,315.00
2022-08-18T01:08:28.995Z,315.00
2022-08-18T01:09:26.708Z,315.00
2022-08-18T01:10:26.710Z,315.00
2022-08-18T01:11:26.715Z,315.00
2022-08-18T01:12:45.118Z,315.00
2022-08-18T01:13:26.693Z,315.00
2022-08-18T01:14:26.692Z,315.00
2022-08-18T01:15:28.308Z,315.00
2022-08-18T01:16:26.699Z,315.00
2022-08-18T01:17:26.726Z,315.00
2022-08-18T01:18:26.697Z,272.20
2022-08-18T01:19:26.732Z,225.00
2022-08-18T01:20:26.944Z,225.00
2022-08-18T01:21:26.715Z,225.00
2022-08-18T01:22:26.730Z,225.00
2022-08-18T01:23:26.699Z,225.00
2022-08-18T01:24:26.738Z,225.00
2022-08-18T01:25:26.691Z,225.00
2022-08-18T01:26:26.714Z,225.00
2022-08-18T01:27:26.719Z,225.00
2022-08-18T01:28:26.733Z,225.00
2022-08-18T01:29:26.717Z,225.00
2022-08-18T01:30:26.720Z,225.00
2022-08-18T01:31:26.727Z,225.00
2022-08-18T01:32:26.745Z,225.00
2022-08-18T01:33:26.775Z,225.00
2022-08-18T01:34:26.752Z,225.00
2022-08-18T01:35:26.705Z,273.32
2022-08-18T01:36:26.728Z,315.00
2022-08-18T01:37:26.731Z,315.00
2022-08-18T01:38:26.724Z,315.00
2022-08-18T01:41:17.456Z,315.00
2022-08-18T01:41:23.963Z,315.00
2022-08-18T01:41:30.463Z,315.00
2022-08-18T01:42:26.730Z,315.00
2022-08-18T01:43:26.745Z,315.00
2022-08-18T01:44:26.762Z,315.00
2022-08-18T01:45:26.752Z,315.00
2022-08-18T01:46:26.737Z,315.00
2022-08-18T01:47:26.739Z,315.00
2022-08-18T01:48:26.756Z,315.00
2022-08-18T01:49:26.751Z,315.00
2022-08-18T01:50:26.757Z,315.00
2022-08-18T01:51:38.875Z,315.00
2022-08-18T01:52:26.752Z,315.00
2022-08-18T01:53:26.761Z,315.00
2022-08-18T01:54:26.743Z,315.00
2022-08-18T01:55:26.731Z,315.00
2022-08-18T01:56:26.784Z,315.00
2022-08-18T01:57:26.818Z,315.00
2022-08-18T01:58:31.080Z,315.00
2022-08-18T01:59:26.775Z,315.00
2022-08-18T02:00:26.751Z,315.00
2022-08-18T02:01:36.498Z,315.00
2022-08-18T02:02:26.852Z,315.00
2022-08-18T02:03:26.766Z,315.00
2022-08-18T02:04:36.142Z,315.00
2022-08-18T02:05:26.764Z,315.00
2022-08-18T02:06:33.568Z,315.00
2022-08-18T02:07:27.975Z,315.00
2022-08-18T02:08:28.164Z,315.00
2022-08-18T02:09:26.784Z,315.00
2022-08-18T02:10:26.756Z,315.00
2022-08-18T02:11:26.769Z,315.00
2022-08-18T02:12:26.750Z,315.00
2022-08-18T02:13:26.755Z,315.00
2022-08-18T02:14:27.277Z,315.00
2022-08-18T02:15:26.770Z,315.00
2022-08-18T02:16:26.806Z,315.00
2022-08-18T02:17:26.759Z,315.00
2022-08-18T02:18:47.974Z,315.00
2022-08-18T02:19:26.786Z,315.00
2022-08-18T02:20:26.783Z,234.71
2022-08-18T02:21:26.760Z,225.00
2022-08-18T02:22:26.782Z,225.00
2022-08-18T02:23:26.770Z,225.00
2022-08-18T02:24:26.804Z,225.00
2022-08-18T02:25:26.773Z,225.00
2022-08-18T02:26:26.778Z,225.00
2022-08-18T02:27:26.760Z,225.00
2022-08-18T02:28:30.613Z,225.00
2022-08-18T02:29:26.785Z,225.00
2022-08-18T02:30:26.784Z,225.00
2022-08-18T02:31:26.776Z,225.00
2022-08-18T02:32:26.814Z,225.00
2022-08-18T02:33:26.796Z,225.00
2022-08-18T02:34:28.049Z,225.00
2022-08-18T02:35:26.815Z,225.00
2022-08-18T02:36:26.836Z,225.00
2022-08-18T02:37:26.858Z,225.00
2022-08-18T02:38:26.863Z,225.00
2022-08-18T02:39:26.963Z,292.58
2022-08-18T02:40:26.839Z,0.00
2022-08-18T02:41:26.864Z,0.00
2022-08-18T02:42:26.864Z,232.82
2022-08-18T02:43:26.874Z,225.00
2022-08-18T02:44:26.885Z,240.25
2022-08-18T02:45:26.896Z,315.00
2022-08-18T02:46:29.738Z,315.00
2022-08-18T02:47:30.279Z,315.00
2022-08-18T02:48:26.925Z,315.00
2022-08-18T02:49:26.939Z,315.00
2022-08-18T02:50:26.935Z,315.00
2022-08-18T02:51:26.937Z,315.00
2022-08-18T02:52:26.915Z,315.00
2022-08-18T02:53:26.900Z,315.00
2022-08-18T02:55:00.134Z,315.00
2022-08-18T02:56:00.140Z,315.00
2022-08-18T02:57:00.146Z,250.19
2022-08-18T02:58:00.140Z,225.00
2022-08-18T02:59:00.141Z,303.20
2022-08-18T03:00:00.162Z,315.00
2022-08-18T03:01:00.219Z,315.00
2022-08-18T03:02:00.156Z,315.00
2022-08-18T03:03:00.154Z,315.00
2022-08-18T03:04:00.152Z,315.00
2022-08-18T03:05:00.168Z,315.00
2022-08-18T03:06:00.166Z,315.00
2022-08-18T03:07:00.158Z,315.00
2022-08-18T03:08:00.186Z,315.00
2022-08-18T03:09:00.153Z,315.00
2022-08-18T03:10:05.712Z,315.00
2022-08-18T03:11:00.145Z,315.00
2022-08-18T03:12:00.191Z,315.00
2022-08-18T03:13:00.150Z,315.00
2022-08-18T03:14:00.175Z,315.00
2022-08-18T03:15:00.194Z,315.00
2022-08-18T03:16:00.158Z,315.00
2022-08-18T03:17:00.170Z,315.00
2022-08-18T03:18:00.160Z,315.00
2022-08-18T03:19:00.172Z,315.00
2022-08-18T03:20:00.873Z,315.00
2022-08-18T03:21:00.188Z,315.00
2022-08-18T03:22:02.844Z,315.00
2022-08-18T03:23:05.846Z,315.00
2022-08-18T03:24:00.514Z,315.00
2022-08-18T03:25:00.212Z,315.00
2022-08-18T03:26:00.188Z,315.00
2022-08-18T03:27:00.183Z,315.00
2022-08-18T03:28:00.171Z,315.00
2022-08-18T03:29:00.238Z,315.20
2022-08-18T03:30:00.336Z,0.00
2022-08-18T03:31:00.356Z,317.06
2022-08-18T03:32:00.351Z,315.00
2022-08-18T03:33:00.398Z,315.00
2022-08-18T03:34:00.369Z,315.00
2022-08-18T03:35:00.407Z,315.00
2022-08-18T03:36:00.381Z,315.00
2022-08-18T03:37:00.407Z,259.43
2022-08-18T03:38:00.432Z,225.00
2022-08-18T03:39:00.414Z,225.00
2022-08-18T03:40:00.545Z,225.00
2022-08-18T03:41:00.460Z,225.00
2022-08-18T03:42:01.977Z,265.76
2022-08-18T03:43:02.061Z,0.00
2022-08-18T03:44:00.476Z,0.00
2022-08-18T03:45:00.524Z,0.00
2022-08-18T03:46:00.517Z,0.00
2022-08-18T03:47:00.471Z,0.00
2022-08-18T03:48:00.513Z,0.00
2022-08-18T03:49:00.503Z,0.00
2022-08-18T03:50:00.534Z,0.00
2022-08-18T03:51:04.838Z,0.00
2022-08-18T03:52:00.521Z,0.00
2022-08-18T03:53:00.541Z,0.00
2022-08-18T03:54:00.494Z,0.00
2022-08-18T03:55:00.531Z,0.00
2022-08-18T03:56:00.519Z,0.00
2022-08-18T03:57:00.650Z,0.00
2022-08-18T03:58:00.487Z,0.00
2022-08-18T03:59:00.536Z,0.00
2022-08-18T04:00:00.533Z,0.00
2022-08-18T04:01:00.603Z,0.00
2022-08-18T04:02:00.646Z,0.00
2022-08-18T04:03:00.530Z,0.00
2022-08-18T04:04:00.547Z,351.35
2022-08-18T04:05:00.558Z,225.00
2022-08-18T04:06:00.524Z,225.00
2022-08-18T04:07:00.549Z,225.00
2022-08-18T04:08:00.571Z,225.00
2022-08-18T04:09:00.568Z,225.00
2022-08-18T04:10:00.579Z,225.00
2022-08-18T04:11:00.592Z,225.00
2022-08-18T04:12:00.617Z,225.00
2022-08-18T04:13:00.605Z,225.00
2022-08-18T04:14:00.598Z,225.00
2022-08-18T04:15:00.646Z,225.00
2022-08-18T04:16:00.651Z,337.74
2022-08-18T04:17:00.659Z,344.71
2022-08-18T04:18:03.421Z,315.00
2022-08-18T04:19:00.701Z,315.00
2022-08-18T04:20:00.667Z,315.00
2022-08-18T04:21:00.659Z,315.00
2022-08-18T04:22:00.695Z,315.00
2022-08-18T04:23:00.668Z,315.00
2022-08-18T04:24:00.660Z,315.00
2022-08-18T04:25:00.709Z,315.00
2022-08-18T04:26:00.672Z,315.00
2022-08-18T04:27:00.670Z,315.00
2022-08-18T04:28:00.703Z,315.00
2022-08-18T04:29:00.667Z,315.00
2022-08-18T04:30:00.698Z,315.00
2022-08-18T04:31:00.669Z,315.00
2022-08-18T04:32:00.696Z,315.00
2022-08-18T04:33:00.662Z,319.81
2022-08-18T04:34:00.688Z,320.11
2022-08-18T04:35:02.855Z,315.00
2022-08-18T04:36:00.687Z,315.00
2022-08-18T04:37:00.681Z,315.00
2022-08-18T04:38:00.702Z,315.00
2022-08-18T04:39:00.695Z,315.00
2022-08-18T04:40:00.778Z,315.00
2022-08-18T04:41:00.686Z,315.00
2022-08-18T04:42:00.690Z,315.00
2022-08-18T04:43:00.706Z,315.00
2022-08-18T04:44:00.722Z,315.00
2022-08-18T04:45:00.702Z,315.00
2022-08-18T04:46:00.691Z,315.00
2022-08-18T04:47:00.696Z,315.00
2022-08-18T04:48:00.713Z,315.00
2022-08-18T04:49:00.734Z,315.00
2022-08-18T04:50:00.745Z,346.48
2022-08-18T04:51:00.759Z,0.00
2022-08-18T04:52:26.635Z,0.00
2022-08-18T04:53:00.778Z,0.00
2022-08-18T04:54:00.777Z,0.00
2022-08-18T04:55:00.773Z,0.00
2022-08-18T04:56:00.791Z,0.00
2022-08-18T04:57:00.771Z,0.00
2022-08-18T04:58:00.778Z,0.00
2022-08-18T04:59:00.785Z,0.00
2022-08-18T05:00:00.775Z,0.00
2022-08-18T05:01:00.829Z,0.00
2022-08-18T05:02:00.811Z,0.00
2022-08-18T05:03:00.795Z,0.00
2022-08-18T05:04:00.782Z,0.00
2022-08-18T05:05:00.796Z,0.00
2022-08-18T05:06:00.826Z,0.00
2022-08-18T05:07:00.785Z,0.00
2022-08-18T05:08:00.786Z,0.00
2022-08-18T05:09:00.794Z,0.00
2022-08-18T05:10:00.838Z,0.00
2022-08-18T05:11:04.133Z,0.00
2022-08-18T05:12:00.814Z,0.00
2022-08-18T05:13:00.771Z,0.00
2022-08-18T05:14:00.806Z,318.26
2022-08-18T05:15:00.842Z,225.00
2022-08-18T05:16:10.796Z,303.77
2022-08-18T05:17:00.820Z,315.00
2022-08-18T05:18:00.822Z,315.00
2022-08-18T05:19:00.813Z,315.00
2022-08-18T05:20:01.619Z,315.00
2022-08-18T05:21:00.830Z,315.00
2022-08-18T05:22:03.004Z,315.00
2022-08-18T05:23:00.907Z,315.00
2022-08-18T05:24:00.898Z,315.00
2022-08-18T05:25:00.939Z,315.00
2022-08-18T05:26:00.943Z,315.00
2022-08-18T05:27:00.932Z,315.00
2022-08-18T05:28:00.961Z,315.00
2022-08-18T05:29:17.715Z,315.00
2022-08-18T05:30:00.989Z,315.00
2022-08-18T05:31:00.961Z,315.00
2022-08-18T05:32:00.977Z,315.00
2022-08-18T05:33:00.974Z,315.00
2022-08-18T05:34:00.970Z,315.00
2022-08-18T05:35:00.991Z,315.00
2022-08-18T05:36:00.977Z,315.00
2022-08-18T05:37:00.986Z,315.00
2022-08-18T05:38:00.996Z,315.00
2022-08-18T05:39:00.958Z,293.88
2022-08-18T05:40:01.084Z,225.00
2022-08-18T05:41:00.979Z,225.00
2022-08-18T05:42:00.971Z,225.00
2022-08-18T05:43:00.997Z,296.90
2022-08-18T05:44:00.979Z,251.68
2022-08-18T05:45:00.996Z,225.00
2022-08-18T05:46:00.993Z,225.00
2022-08-18T05:47:00.990Z,225.00
2022-08-18T05:48:00.962Z,225.00
2022-08-18T05:49:00.983Z,225.00
2022-08-18T05:50:01.007Z,225.00
2022-08-18T05:51:00.973Z,276.51
2022-08-18T05:52:01.021Z,315.00
2022-08-18T05:53:00.987Z,276.91
2022-08-18T05:54:01.008Z,225.00
2022-08-18T05:55:01.018Z,225.00
2022-08-18T05:56:00.994Z,274.68
2022-08-18T05:57:01.002Z,315.00
2022-08-18T05:58:01.008Z,315.00
2022-08-18T05:59:00.996Z,315.00
2022-08-18T06:00:01.012Z,315.00
2022-08-18T06:01:01.003Z,315.00
2022-08-18T06:02:00.995Z,315.00
2022-08-18T06:03:01.067Z,315.00
2022-08-18T06:04:01.000Z,315.00
2022-08-18T06:05:01.015Z,258.28
2022-08-18T06:06:00.998Z,251.59
2022-08-18T06:07:01.008Z,245.84
2022-08-18T06:08:01.017Z,225.00
2022-08-18T06:09:01.043Z,232.68
2022-08-18T06:10:01.013Z,225.00
2022-08-18T06:11:01.028Z,225.00
2022-08-18T06:12:01.019Z,225.00
2022-08-18T06:13:01.009Z,225.00
2022-08-18T06:14:01.043Z,225.00
2022-08-18T06:15:01.078Z,225.00
2022-08-18T06:16:01.048Z,225.00
2022-08-18T06:17:01.042Z,225.00
2022-08-18T06:18:01.071Z,225.00
2022-08-18T06:19:01.069Z,225.00
2022-08-18T06:20:01.085Z,225.00
2022-08-18T06:21:01.052Z,225.00
2022-08-18T06:22:01.056Z,225.00
2022-08-18T06:23:01.047Z,225.00
2022-08-18T06:24:01.068Z,225.00
2022-08-18T06:25:01.088Z,225.00
2022-08-18T06:26:01.084Z,225.00
2022-08-18T06:27:01.053Z,225.00
2022-08-18T06:28:01.057Z,225.00
2022-08-18T06:29:01.068Z,225.00
2022-08-18T06:30:01.305Z,225.00
2022-08-18T06:31:01.082Z,225.00
2022-08-18T06:32:01.071Z,225.00
2022-08-18T06:33:01.085Z,225.00
2022-08-18T06:34:01.068Z,225.00
2022-08-18T06:35:01.071Z,225.00
2022-08-18T06:36:01.085Z,225.00
2022-08-18T06:37:01.066Z,225.00
2022-08-18T06:38:01.076Z,225.00
2022-08-18T06:39:01.085Z,225.00
2022-08-18T06:40:01.126Z,225.00
2022-08-18T06:41:01.106Z,225.00
2022-08-18T06:42:01.110Z,230.39
2022-08-18T06:43:02.042Z,331.90
2022-08-18T06:44:01.101Z,225.00
2022-08-18T06:45:01.099Z,298.98
2022-08-18T06:46:01.108Z,307.05
2022-08-18T06:47:01.100Z,225.00
2022-08-18T06:48:01.079Z,225.00
2022-08-18T06:49:01.084Z,225.00
2022-08-18T06:50:01.101Z,236.18
2022-08-18T06:51:01.098Z,225.00
2022-08-18T06:52:01.088Z,225.00
2022-08-18T06:53:01.094Z,225.00
2022-08-18T06:54:01.097Z,225.00
2022-08-18T06:55:01.153Z,225.00
2022-08-18T06:56:01.120Z,225.00
2022-08-18T06:57:01.108Z,225.00
2022-08-18T06:58:01.146Z,225.00
2022-08-18T06:59:01.148Z,266.19
2022-08-18T07:00:01.191Z,315.00
2022-08-18T07:01:01.227Z,315.00
2022-08-18T07:02:01.186Z,288.12
2022-08-18T07:03:01.224Z,270.00
2022-08-18T07:04:01.220Z,270.00
2022-08-18T07:05:01.240Z,270.00
2022-08-18T07:06:01.245Z,270.00
2022-08-18T07:07:01.233Z,270.00
2022-08-18T07:08:01.269Z,228.23
2022-08-18T07:09:01.293Z,225.00
2022-08-18T07:10:01.290Z,225.00
2022-08-18T07:11:01.286Z,225.00
2022-08-18T07:12:01.300Z,225.00
2022-08-18T07:13:01.330Z,225.00
2022-08-18T07:14:16.184Z,225.00
2022-08-18T07:15:01.358Z,225.00
2022-08-18T07:16:01.342Z,225.00
2022-08-18T07:17:01.356Z,225.00
2022-08-18T07:18:01.366Z,225.00
2022-08-18T07:19:01.341Z,225.00
2022-08-18T07:20:01.357Z,225.00
2022-08-18T07:21:01.325Z,225.00
2022-08-18T07:22:01.320Z,225.00
2022-08-18T07:23:01.350Z,225.00
2022-08-18T07:24:23.143Z,225.00
2022-08-18T07:25:05.160Z,225.00
2022-08-18T07:26:01.329Z,225.00
2022-08-18T07:27:01.368Z,225.00
2022-08-18T07:28:01.356Z,225.00
2022-08-18T07:29:01.367Z,225.00
2022-08-18T07:30:01.362Z,225.00
2022-08-18T07:31:16.522Z,225.00
2022-08-18T07:32:01.348Z,225.00
2022-08-18T07:33:01.342Z,225.00
2022-08-18T07:34:01.366Z,225.00
2022-08-18T07:35:01.375Z,225.00
2022-08-18T07:36:01.363Z,225.00
2022-08-18T07:37:01.377Z,225.00
2022-08-18T07:38:13.795Z,225.00
2022-08-18T07:39:01.671Z,225.00
2022-08-18T07:40:01.448Z,225.00
2022-08-18T07:41:01.354Z,225.00
2022-08-18T07:42:01.396Z,225.00
2022-08-18T07:43:02.365Z,225.00
2022-08-18T07:44:01.382Z,225.00
2022-08-18T07:45:01.358Z,225.00
2022-08-18T07:46:01.378Z,225.00
2022-08-18T07:47:01.365Z,285.05
2022-08-18T07:48:10.908Z,315.00
2022-08-18T07:49:01.373Z,315.00
2022-08-18T07:50:20.551Z,346.82
2022-08-18T07:51:05.312Z,357.47
2022-08-18T07:52:01.389Z,313.12
2022-08-18T07:53:01.430Z,229.37
2022-08-18T07:54:01.389Z,315.00
2022-08-18T07:55:01.409Z,315.00
2022-08-18T07:56:01.364Z,349.24
2022-08-18T07:57:01.414Z,330.68
2022-08-18T07:58:01.383Z,302.78
2022-08-18T07:59:01.398Z,265.86
2022-08-18T08:00:01.393Z,272.37
2022-08-18T08:01:01.525Z,225.00
2022-08-18T08:02:01.463Z,225.00
2022-08-18T08:03:01.444Z,225.40
2022-08-18T08:04:01.440Z,342.71
2022-08-18T08:05:01.415Z,0.00
2022-08-18T08:06:01.510Z,355.12
2022-08-18T08:07:23.306Z,315.00
2022-08-18T08:08:01.405Z,256.16
2022-08-18T08:09:01.413Z,225.00
2022-08-18T08:10:01.433Z,225.00
2022-08-18T08:11:01.428Z,225.00
2022-08-18T08:12:01.422Z,229.38
2022-08-18T08:13:08.864Z,315.00
2022-08-18T08:14:01.409Z,315.00
2022-08-18T08:15:01.433Z,328.33
2022-08-18T08:16:01.423Z,316.91
2022-08-18T08:17:01.428Z,225.00
2022-08-18T08:18:01.414Z,225.00
2022-08-18T08:19:01.430Z,225.00
2022-08-18T08:20:02.056Z,225.00
2022-08-18T08:21:01.421Z,225.00
2022-08-18T08:22:01.420Z,225.00
2022-08-18T08:23:01.416Z,225.00
2022-08-18T08:24:01.424Z,225.00
2022-08-18T08:25:01.453Z,241.16
2022-08-18T08:26:01.437Z,315.00
2022-08-18T08:27:01.435Z,315.00
2022-08-18T08:28:01.448Z,315.00
2022-08-18T08:29:01.461Z,315.00
2022-08-18T08:30:01.461Z,293.05
2022-08-18T08:31:19.103Z,225.00
2022-08-18T08:32:01.419Z,225.00
2022-08-18T08:33:01.453Z,225.00
2022-08-18T08:34:05.398Z,225.00
2022-08-18T08:35:01.464Z,225.00
2022-08-18T08:36:01.433Z,225.00
2022-08-18T08:37:01.442Z,225.00
2022-08-18T08:38:12.321Z,284.05
2022-08-18T08:39:01.437Z,315.00
2022-08-18T08:40:01.494Z,315.00
2022-08-18T08:41:01.430Z,315.00
2022-08-18T08:42:30.295Z,315.00
2022-08-18T08:43:01.453Z,315.00
2022-08-18T08:44:01.433Z,315.00
2022-08-18T08:45:01.462Z,315.00
2022-08-18T08:46:01.452Z,315.00
2022-08-18T08:47:01.464Z,275.62
2022-08-18T08:48:08.394Z,225.00
2022-08-18T08:49:01.483Z,225.00
2022-08-18T08:50:01.461Z,225.00
2022-08-18T08:51:01.463Z,225.00
2022-08-18T08:52:01.443Z,225.00
2022-08-18T08:53:01.448Z,225.00
2022-08-18T08:54:01.432Z,225.00
2022-08-18T08:55:01.487Z,225.00
2022-08-18T08:56:02.743Z,225.00
2022-08-18T08:57:01.466Z,225.00
2022-08-18T08:58:01.462Z,225.00
2022-08-18T08:59:01.452Z,225.00
2022-08-18T09:00:01.497Z,225.00
2022-08-18T09:01:01.477Z,225.00
2022-08-18T09:02:01.565Z,225.00
2022-08-18T09:03:01.468Z,225.00
2022-08-18T09:04:01.471Z,225.00
2022-08-18T09:05:09.296Z,225.00
2022-08-18T09:06:01.504Z,225.00
2022-08-18T09:07:01.485Z,225.00
2022-08-18T09:08:01.475Z,225.00
2022-08-18T09:09:01.505Z,225.00
2022-08-18T09:10:01.500Z,225.00
2022-08-18T09:11:01.478Z,225.00
2022-08-18T09:12:01.488Z,225.00
2022-08-18T09:13:01.469Z,225.00
2022-08-18T09:14:01.470Z,237.52
2022-08-18T09:15:01.525Z,0.00
2022-08-18T09:16:01.486Z,0.00
2022-08-18T09:17:01.466Z,0.00
2022-08-18T09:18:01.482Z,337.54
2022-08-18T09:19:01.513Z,38.18
2022-08-18T09:20:01.515Z,45.00
2022-08-18T09:21:01.472Z,32.69
2022-08-18T09:22:01.498Z,354.86
2022-08-18T09:23:01.520Z,317.76
2022-08-18T09:24:01.474Z,14.56
2022-08-18T09:25:01.515Z,322.59
2022-08-18T09:26:01.529Z,312.65
2022-08-18T09:27:01.556Z,315.00
2022-08-18T09:28:11.323Z,315.00
2022-08-18T09:29:01.546Z,315.00
2022-08-18T09:30:01.574Z,315.00
2022-08-18T09:31:01.546Z,315.00
2022-08-18T09:32:01.605Z,315.00
2022-08-18T09:33:01.556Z,333.83
2022-08-18T09:34:06.723Z,324.95
2022-08-18T09:35:01.583Z,325.17
2022-08-18T09:36:01.575Z,327.64
2022-08-18T09:37:01.569Z,330.04
2022-08-18T09:38:01.570Z,311.81
2022-08-18T09:39:01.562Z,225.00
2022-08-18T09:40:11.234Z,225.00
2022-08-18T09:41:03.316Z,225.00
2022-08-18T09:42:01.592Z,225.00
2022-08-18T09:43:01.610Z,254.69
2022-08-18T09:44:01.579Z,315.00
2022-08-18T09:45:01.607Z,315.00
2022-08-18T09:46:01.593Z,315.00
2022-08-18T09:47:01.584Z,315.00
2022-08-18T09:48:01.593Z,285.53
2022-08-18T09:49:01.557Z,331.29
2022-08-18T09:50:01.806Z,343.05
2022-08-18T09:51:01.623Z,315.00
2022-08-18T09:52:02.172Z,288.79
2022-08-18T09:53:04.447Z,253.06
2022-08-18T09:54:01.584Z,270.00
2022-08-18T09:55:01.589Z,270.00
2022-08-18T09:56:04.948Z,268.73
2022-08-18T09:57:01.583Z,225.00
2022-08-18T09:58:01.593Z,279.03
2022-08-18T09:59:01.581Z,319.01
2022-08-18T10:00:01.621Z,315.00
2022-08-18T10:01:01.628Z,315.00
2022-08-18T10:02:01.568Z,343.82
2022-08-18T10:03:01.575Z,7.60
2022-08-18T10:04:01.609Z,348.72
2022-08-18T10:05:01.628Z,313.33
2022-08-18T10:06:01.598Z,315.00
2022-08-18T10:07:01.592Z,296.61
2022-08-18T10:08:01.589Z,346.79
2022-08-18T10:09:01.633Z,353.71
2022-08-18T10:10:01.603Z,187.20
2022-08-18T10:11:09.133Z,41.38
2022-08-18T10:12:01.630Z,274.36
2022-08-18T10:13:01.607Z,315.00
2022-08-18T10:14:01.633Z,306.40
2022-08-18T10:15:01.657Z,255.69
2022-08-18T10:16:10.153Z,335.44
2022-08-18T10:17:23.320Z,335.48
2022-08-18T10:18:01.623Z,316.89
2022-08-18T10:19:01.606Z,4.13
2022-08-18T10:20:01.632Z,315.00
2022-08-18T10:21:01.648Z,315.00
2022-08-18T10:22:01.644Z,315.00
2022-08-18T10:23:01.629Z,315.00
2022-08-18T10:24:32.151Z,310.58
2022-08-18T10:25:20.844Z,315.00
2022-08-18T10:26:04.546Z,315.00
2022-08-18T10:27:01.623Z,290.87
2022-08-18T10:28:01.628Z,225.00
2022-08-18T10:29:01.634Z,238.10
2022-08-18T10:30:01.688Z,315.00
2022-08-18T10:31:06.306Z,315.00
2022-08-18T10:32:01.641Z,321.38
2022-08-18T10:33:10.783Z,315.00
2022-08-18T10:34:01.697Z,315.00
2022-08-18T10:35:01.651Z,269.67
2022-08-18T10:36:03.218Z,41.96
2022-08-18T10:37:01.633Z,92.49
2022-08-18T10:38:01.626Z,315.00
2022-08-18T10:39:01.624Z,315.00
2022-08-18T10:40:01.719Z,315.00
2022-08-18T10:41:09.387Z,316.29
2022-08-18T10:42:01.638Z,354.49
2022-08-18T10:43:01.668Z,335.82
2022-08-18T10:44:04.971Z,117.40
2022-08-18T10:45:01.670Z,347.56
2022-08-18T10:46:25.481Z,315.00
2022-08-18T10:47:01.681Z,315.00
2022-08-18T10:48:01.672Z,322.56
2022-08-18T10:49:04.321Z,272.44
2022-08-18T10:50:01.689Z,270.00
2022-08-18T10:51:01.674Z,297.31
2022-08-18T10:52:01.661Z,226.07
2022-08-18T10:53:24.470Z,225.00
2022-08-18T10:54:01.900Z,284.36
2022-08-18T10:55:01.682Z,359.74
2022-08-18T10:56:01.897Z,0.00
2022-08-18T10:57:01.918Z,0.00
2022-08-18T10:58:01.686Z,330.28
2022-08-18T10:59:01.668Z,315.00
2022-08-18T11:00:01.712Z,315.00
2022-08-18T11:01:01.670Z,315.00
2022-08-18T11:02:01.710Z,309.32
2022-08-18T11:03:29.928Z,225.00
2022-08-18T11:04:14.548Z,249.32
2022-08-18T11:05:01.730Z,315.00
2022-08-18T11:06:01.712Z,355.95
2022-08-18T11:07:01.664Z,350.38
2022-08-18T11:08:01.708Z,0.00
2022-08-18T11:09:01.713Z,334.14
2022-08-18T11:10:28.547Z,225.00
2022-08-18T11:11:32.701Z,225.00
2022-08-18T11:12:02.161Z,225.00
2022-08-18T11:13:04.043Z,229.92
2022-08-18T11:14:01.684Z,328.81
2022-08-18T11:15:01.704Z,315.00
2022-08-18T11:16:01.700Z,315.00
2022-08-18T11:17:01.708Z,315.00
2022-08-18T11:18:01.694Z,303.00
2022-08-18T11:19:01.701Z,300.02
2022-08-18T11:20:01.724Z,315.00
2022-08-18T11:21:01.729Z,279.49
2022-08-18T11:22:01.688Z,269.82
2022-08-18T11:23:01.714Z,336.58
2022-08-18T11:24:01.695Z,335.71
2022-08-18T11:25:02.991Z,290.53
2022-08-18T11:26:01.708Z,305.16
2022-08-18T11:27:01.702Z,259.85
2022-08-18T11:28:01.701Z,347.37
2022-08-18T11:29:01.698Z,0.00
2022-08-18T11:30:01.748Z,0.00
2022-08-18T11:31:01.707Z,347.97
2022-08-18T11:32:02.098Z,315.00
2022-08-18T11:33:03.000Z,315.00
2022-08-18T11:34:01.732Z,315.00
2022-08-18T11:35:01.741Z,315.00
2022-08-18T11:36:01.832Z,315.00
2022-08-18T11:37:01.745Z,315.00
2022-08-18T11:38:01.727Z,315.00
2022-08-18T11:39:01.709Z,315.00
2022-08-18T11:40:01.867Z,315.00
2022-08-18T11:42:01.758Z,315.00
2022-08-18T11:43:01.731Z,315.00
2022-08-18T11:44:01.760Z,315.00
2022-08-18T11:45:01.748Z,315.00
2022-08-18T11:46:01.844Z,315.00
2022-08-18T11:47:01.733Z,294.69
2022-08-18T11:48:01.755Z,245.09
2022-08-18T11:49:01.781Z,315.00
2022-08-18T11:50:04.421Z,315.00
2022-08-18T11:51:01.745Z,315.00
2022-08-18T11:52:03.305Z,315.00
2022-08-18T11:53:01.841Z,289.58
2022-08-18T11:54:01.750Z,225.00
2022-08-18T11:55:01.780Z,225.00
2022-08-18T11:56:01.772Z,225.00
2022-08-18T11:57:01.767Z,225.00
2022-08-18T11:58:01.776Z,225.00
2022-08-18T11:59:01.831Z,249.80
2022-08-18T12:00:01.788Z,225.39
2022-08-18T12:01:03.286Z,280.76
2022-08-18T12:02:01.788Z,225.00
2022-08-18T12:03:01.766Z,296.01
2022-08-18T12:04:01.762Z,250.25
2022-08-18T12:05:03.396Z,310.34
2022-08-18T12:06:01.787Z,327.27
2022-08-18T12:07:01.833Z,316.91
2022-08-18T12:08:02.202Z,322.81
2022-08-18T12:09:01.761Z,285.54
2022-08-18T12:11:01.758Z,225.00
2022-08-18T12:12:01.781Z,248.05
2022-08-18T12:13:01.773Z,332.28
2022-08-18T12:14:01.781Z,225.00
2022-08-18T12:15:10.499Z,284.19
2022-08-18T12:16:01.782Z,160.86
2022-08-18T12:17:01.918Z,252.72
2022-08-18T12:18:01.778Z,225.00
2022-08-18T12:19:03.076Z,254.57
2022-08-18T12:20:01.795Z,357.73
2022-08-18T12:21:02.846Z,325.30
2022-08-18T12:22:03.887Z,314.39
2022-08-18T12:23:01.812Z,315.00
2022-08-18T12:24:01.756Z,335.29
2022-08-18T12:25:01.803Z,306.13
2022-08-18T12:26:01.800Z,13.44
2022-08-18T12:27:01.821Z,317.83
2022-08-18T12:28:01.779Z,315.00
2022-08-18T12:29:01.887Z,311.72
2022-08-18T12:30:01.826Z,308.36
2022-08-18T12:31:01.791Z,0.00
2022-08-18T12:32:01.820Z,0.00
2022-08-18T12:33:10.193Z,359.77
2022-08-18T12:34:01.810Z,302.33
2022-08-18T12:35:07.217Z,315.00